Time;durP1;ratioP1;P1;durP2;ratioP2;P2;SDS_P1;SDS_P2;PMS_P1;PMS_P2;Temp;Humidity;BMP_temperature;BMP_pressure;BME280_temperature;BME280_humidity;BME280_pressure;Samples;Min_cycle;Max_cycle;Signal;HPM_P1;HPM_P2
2021/12/23 00:02:23;;;;;;;11.30;8.63;;;21.30;42.40;;;;;;5143506;28;20050;-59
2021/12/23 00:04:56;;;;;;;12.77;8.30;;;21.30;42.40;;;;;;5138698;28;20053;-59
2021/12/23 00:07:28;;;;;;;12.13;7.72;;;21.30;42.40;;;;;;5140692;28;20303;-58
2021/12/23 00:12:35;;;;;;;12.40;8.98;;;21.30;42.30;;;;;;5146216;28;20054;-58
2021/12/23 00:15:22;;;;;;;11.25;7.65;;;21.20;42.20;;;;;;5153247;28;20061;-58
2021/12/23 00:18:02;;;;;;;12.73;8.05;;;21.30;42.30;;;;;;5146888;28;20050;-59
2021/12/23 00:26:13;;;;;;;10.88;8.27;;;21.20;42.20;;;;;;5114845;28;20046;-59
2021/12/23 00:28:46;;;;;;;12.10;8.75;;;21.20;42.20;;;;;;5150111;28;20415;-59
2021/12/23 00:31:18;;;;;;;14.23;9.07;;;21.20;42.20;;;;;;5137906;28;20054;-59
2021/12/23 00:33:51;;;;;;;11.73;8.75;;;21.20;42.20;;;;;;5145625;28;20667;-59
2021/12/23 00:36:24;;;;;;;10.73;8.48;;;21.20;42.10;;;;;;5151966;28;20053;-58
2021/12/23 00:38:57;;;;;;;13.18;9.32;;;21.20;42.10;;;;;;5146060;28;20049;-58
2021/12/23 00:41:31;;;;;;;12.90;9.85;;;21.20;42.10;;;;;;5141911;28;20050;-58
2021/12/23 00:44:03;;;;;;;11.70;8.75;;;21.20;42.00;;;;;;5146142;28;20061;-57
2021/12/23 00:46:36;;;;;;;13.63;9.23;;;21.20;42.00;;;;;;5150151;28;20038;-59
2021/12/23 00:49:08;;;;;;;11.38;8.93;;;21.20;42.00;;;;;;5146027;28;20383;-60
2021/12/23 00:51:41;;;;;;;11.65;9.18;;;21.20;42.00;;;;;;5154305;28;20052;-59
2021/12/23 00:54:13;;;;;;;12.43;8.75;;;21.20;42.00;;;;;;5130317;28;22621;-59
2021/12/23 00:56:49;;;;;;;13.38;8.75;;;21.20;41.90;;;;;;5159000;28;20045;-58
2021/12/23 00:59:21;;;;;;;12.02;8.60;;;21.20;41.90;;;;;;5158301;28;20058;-60
2021/12/23 01:01:55;;;;;;;12.63;9.07;;;21.20;41.90;;;;;;5136916;28;20046;-58
2021/12/23 01:04:32;;;;;;;13.45;9.45;;;21.20;41.90;;;;;;5153645;28;20061;-59
2021/12/23 01:07:05;;;;;;;12.40;9.65;;;21.20;41.90;;;;;;5160137;28;20049;-57
2021/12/23 01:09:37;;;;;;;12.48;9.45;;;21.20;41.90;;;;;;5160664;28;20045;-58
2021/12/23 01:12:12;;;;;;;12.57;9.43;;;21.20;41.80;;;;;;5149628;28;20053;-57
2021/12/23 01:14:57;;;;;;;13.43;9.85;;;21.20;41.80;;;;;;5159084;28;20052;-59
2021/12/23 01:17:42;;;;;;;12.18;8.77;;;21.20;41.80;;;;;;5147727;28;20046;-58
2021/12/23 01:20:14;;;;;;;11.60;8.30;;;21.20;41.80;;;;;;5150695;28;20048;-58
2021/12/23 01:22:46;;;;;;;13.73;8.68;;;21.20;41.80;;;;;;5154635;28;20530;-60
2021/12/23 01:25:20;;;;;;;12.73;8.60;;;21.20;41.80;;;;;;5145079;28;20061;-58
2021/12/23 01:27:53;;;;;;;;;;;21.20;41.80;;;;;;5154003;28;20053;-58
2021/12/23 01:30:26;;;;;;;10.38;8.02;;;21.10;41.70;;;;;;5150903;28;19929;-58
2021/12/23 01:32:58;;;;;;;12.98;8.55;;;21.20;41.90;;;;;;5142941;28;20066;-59
2021/12/23 01:35:31;;;;;;;11.98;8.40;;;21.20;42.50;;;;;;5151960;28;20056;-59
2021/12/23 01:38:04;;;;;;;12.10;8.95;;;21.20;41.80;;;;;;5154881;28;20066;-60
2021/12/23 01:40:37;;;;;;;;;;;21.20;41.80;;;;;;5148424;28;20046;-59
2021/12/23 01:43:10;;;;;;;15.02;9.43;;;21.10;41.80;;;;;;5151217;28;19929;-59
2021/12/23 01:45:45;;;;;;;13.35;9.02;;;21.10;41.80;;;;;;5144387;28;20061;-57
2021/12/23 01:48:18;;;;;;;11.13;8.23;;;21.10;41.80;;;;;;5154910;28;20049;-59
2021/12/23 01:50:51;;;;;;;11.45;9.18;;;21.10;41.70;;;;;;5164916;28;20049;-59
2021/12/23 01:53:23;;;;;;;12.38;9.02;;;21.10;41.70;;;;;;5150473;28;20042;-59
2021/12/23 01:55:55;;;;;;;11.30;8.07;;;21.10;41.70;;;;;;5154457;28;20051;-59
2021/12/23 01:58:28;;;;;;;10.90;7.88;;;21.10;41.70;;;;;;5153565;28;20046;-56
2021/12/23 02:01:00;;;;;;;11.32;8.48;;;21.10;41.60;;;;;;5145942;28;20046;-60
2021/12/23 02:03:34;;;;;;;11.90;8.67;;;21.10;41.70;;;;;;5156997;28;20391;-59
2021/12/23 02:06:07;;;;;;;12.95;8.60;;;21.10;41.60;;;;;;5150197;28;21908;-59
2021/12/23 02:08:40;;;;;;;15.13;8.77;;;21.10;41.70;;;;;;5161433;28;20305;-58
2021/12/23 02:11:14;;;;;;;15.02;8.02;;;21.10;41.60;;;;;;5159875;28;20081;-58
2021/12/23 02:13:47;;;;;;;10.57;7.45;;;21.10;41.60;;;;;;5156746;28;20050;-58
2021/12/23 02:16:19;;;;;;;11.18;7.78;;;21.10;41.60;;;;;;5151214;28;20509;-58
2021/12/23 02:18:52;;;;;;;11.48;8.02;;;21.10;41.60;;;;;;5155948;28;20054;-58
2021/12/23 02:21:24;;;;;;;12.07;8.88;;;21.10;41.60;;;;;;5156690;28;20053;-60
2021/12/23 02:23:57;;;;;;;11.55;7.47;;;21.10;41.60;;;;;;5153802;28;20049;-59
2021/12/23 02:26:29;;;;;;;11.77;8.05;;;21.10;41.60;;;;;;5153633;28;20418;-59
2021/12/23 02:29:02;;;;;;;10.77;7.72;;;21.10;41.60;;;;;;5151971;28;26147;-58
2021/12/23 02:31:35;;;;;;;10.88;7.93;;;21.10;41.50;;;;;;5146233;28;20054;-59
2021/12/23 02:34:08;;;;;;;9.50;7.25;;;21.10;41.60;;;;;;5171800;28;20065;-59
2021/12/23 02:36:40;;;;;;;10.82;8.20;;;21.10;41.50;;;;;;5160151;28;20061;-57
2021/12/23 02:39:12;;;;;;;12.15;8.27;;;21.10;41.50;;;;;;5159019;28;21140;-59
2021/12/23 02:41:45;;;;;;;10.82;7.60;;;21.10;41.60;;;;;;5150132;28;20046;-57
2021/12/23 02:44:19;;;;;;;12.33;8.23;;;21.10;41.60;;;;;;5151311;28;20053;-59
2021/12/23 02:46:51;;;;;;;12.18;7.60;;;21.10;41.60;;;;;;5151778;28;20883;-58
2021/12/23 02:49:23;;;;;;;9.98;7.18;;;21.10;41.50;;;;;;5154811;28;20057;-59
2021/12/23 02:51:56;;;;;;;10.40;7.78;;;21.10;41.50;;;;;;5158490;28;20053;-59
2021/12/23 02:54:28;;;;;;;9.50;6.88;;;21.10;41.60;;;;;;5154259;28;20342;-59
2021/12/23 02:57:01;;;;;;;10.93;7.47;;;21.10;41.50;;;;;;5156411;28;20068;-59
2021/12/23 02:59:33;;;;;;;9.90;7.68;;;21.00;41.50;;;;;;5151199;28;20042;-59
2021/12/23 03:02:06;;;;;;;11.38;7.55;;;21.10;41.50;;;;;;5166354;28;20044;-58
2021/12/23 03:04:38;;;;;;;8.90;7.25;;;21.00;41.50;;;;;;5153935;28;20038;-58
2021/12/23 03:07:11;;;;;;;10.57;7.35;;;21.00;41.50;;;;;;5162856;28;20053;-60
2021/12/23 03:09:47;;;;;;;11.27;7.15;;;21.00;41.40;;;;;;5158652;28;20536;-59
2021/12/23 03:12:20;;;;;;;10.95;7.88;;;21.00;41.40;;;;;;5152592;28;20038;-59
2021/12/23 03:14:52;;;;;;;11.25;7.43;;;21.10;41.40;;;;;;5146029;28;20086;-59
2021/12/23 03:17:25;;;;;;;9.65;7.40;;;21.00;41.40;;;;;;5154752;28;20058;-59
2021/12/23 03:19:57;;;;;;;9.75;7.57;;;21.10;41.40;;;;;;5153451;28;20037;-58
2021/12/23 03:22:29;;;;;;;9.60;7.10;;;21.10;41.40;;;;;;5154797;28;20053;-59
2021/12/23 03:25:03;;;;;;;11.30;7.47;;;21.00;41.30;;;;;;5150961;28;20411;-60
2021/12/23 03:27:35;;;;;;;12.82;8.13;;;21.00;41.30;;;;;;5129692;28;20046;-58
2021/12/23 03:30:08;;;;;;;10.05;6.75;;;21.00;41.40;;;;;;5145899;28;20050;-60
2021/12/23 03:32:41;;;;;;;9.88;7.38;;;21.00;41.30;;;;;;5152135;28;20785;-59
2021/12/23 03:35:13;;;;;;;9.82;7.30;;;21.00;41.30;;;;;;5149284;28;20422;-58
2021/12/23 03:37:46;;;;;;;11.05;7.40;;;21.00;41.40;;;;;;5155187;28;20049;-60
2021/12/23 03:40:19;;;;;;;10.68;7.78;;;21.00;41.30;;;;;;5153455;28;20050;-59
2021/12/23 03:42:52;;;;;;;9.30;6.57;;;21.00;41.30;;;;;;5153441;28;20045;-59
2021/12/23 03:45:24;;;;;;;8.90;7.13;;;21.00;41.20;;;;;;5145202;28;20049;-58
2021/12/23 03:47:57;;;;;;;9.70;7.23;;;21.00;41.30;;;;;;5141362;28;20058;-59
2021/12/23 03:50:29;;;;;;;10.32;7.35;;;21.00;41.20;;;;;;5148497;28;20316;-58
2021/12/23 03:53:02;;;;;;;10.02;7.30;;;21.00;41.20;;;;;;5154656;28;20054;-58
2021/12/23 03:55:34;;;;;;;9.65;7.00;;;21.00;41.20;;;;;;5152975;28;20697;-60
2021/12/23 03:58:07;;;;;;;8.38;6.07;;;21.00;41.10;;;;;;5143681;28;20050;-59
2021/12/23 04:00:40;;;;;;;8.30;6.57;;;21.00;41.10;;;;;;5152154;28;20065;-59
2021/12/23 04:03:14;;;;;;;9.45;6.88;;;21.00;41.20;;;;;;5147609;28;20049;-59
2021/12/23 04:05:46;;;;;;;9.85;7.45;;;21.00;41.10;;;;;;5146204;28;20049;-60
2021/12/23 04:08:19;;;;;;;8.80;6.75;;;21.00;41.20;;;;;;5144117;28;20525;-59
2021/12/23 04:10:51;;;;;;;8.68;6.45;;;21.00;41.00;;;;;;5143163;28;20807;-60
2021/12/23 04:13:25;;;;;;;9.95;6.80;;;21.00;41.20;;;;;;5144028;28;20058;-59
2021/12/23 04:15:57;;;;;;;;;;;21.00;41.10;;;;;;5154466;28;20061;-60
2021/12/23 04:18:30;;;;;;;10.30;6.63;;;20.90;41.00;;;;;;5148504;28;19922;-60
2021/12/23 04:21:02;;;;;;;9.75;7.03;;;20.90;41.20;;;;;;5143517;28;20047;-60
2021/12/23 04:23:35;;;;;;;8.57;6.75;;;20.90;41.10;;;;;;5149379;28;20046;-59
2021/12/23 04:26:09;;;;;;;8.55;6.20;;;21.00;41.10;;;;;;5138598;28;20042;-59
2021/12/23 04:28:46;;;;;;;10.25;7.82;;;21.00;41.10;;;;;;5131797;28;20054;-59
2021/12/23 04:31:22;;;;;;;10.15;6.30;;;20.90;40.90;;;;;;5127253;28;20323;-57
2021/12/23 04:33:54;;;;;;;9.30;6.50;;;21.00;40.90;;;;;;5131101;28;20038;-59
2021/12/23 04:36:29;;;;;;;8.65;6.68;;;21.00;41.00;;;;;;5140725;28;20053;-59
2021/12/23 04:39:04;;;;;;;8.30;6.05;;;21.00;41.00;;;;;;5141524;28;20054;-59
2021/12/23 04:41:38;;;;;;;9.07;6.20;;;21.10;41.10;;;;;;5128851;28;20045;-58
2021/12/23 04:44:11;;;;;;;8.40;5.97;;;21.10;41.10;;;;;;5146264;28;20061;-59
2021/12/23 04:46:43;;;;;;;10.38;6.30;;;21.10;41.10;;;;;;5137938;28;20532;-58
2021/12/23 04:49:16;;;;;;;7.97;5.90;;;21.10;41.20;;;;;;5100188;28;20054;-59
2021/12/23 04:51:48;;;;;;;8.43;6.07;;;21.20;41.30;;;;;;5140614;28;20046;-60
2021/12/23 04:54:21;;;;;;;8.10;6.03;;;21.20;41.40;;;;;;5132106;28;20058;-58
2021/12/23 04:56:53;;;;;;;7.22;5.63;;;21.20;41.40;;;;;;5142582;28;20546;-60
2021/12/23 04:59:25;;;;;;;7.57;6.18;;;21.20;41.50;;;;;;5140862;28;20062;-60
2021/12/23 05:01:58;;;;;;;8.75;6.25;;;21.20;41.50;;;;;;5135041;28;20042;-59
2021/12/23 05:04:31;;;;;;;8.50;5.90;;;21.20;41.60;;;;;;5131161;28;20191;-59
2021/12/23 05:07:03;;;;;;;8.00;5.93;;;21.30;41.70;;;;;;5146538;28;20324;-60
2021/12/23 05:09:36;;;;;;;8.38;5.63;;;21.30;41.80;;;;;;5135321;28;20057;-59
2021/12/23 05:12:08;;;;;;;9.57;5.88;;;21.30;41.80;;;;;;5142574;28;20054;-58
2021/12/23 05:14:41;;;;;;;14.20;6.40;;;21.30;41.90;;;;;;5136504;28;20058;-58
2021/12/23 05:17:13;;;;;;;7.93;6.23;;;21.30;41.90;;;;;;5146426;28;20049;-59
2021/12/23 05:19:46;;;;;;;9.40;5.93;;;21.30;42.00;;;;;;5141714;28;20309;-59
2021/12/23 05:22:18;;;;;;;8.85;5.88;;;21.30;42.00;;;;;;5143878;28;20053;-60
2021/12/23 05:24:52;;;;;;;8.18;5.72;;;21.30;42.10;;;;;;5133995;28;20495;-59
2021/12/23 05:27:24;;;;;;;11.02;6.55;;;21.30;42.10;;;;;;5141468;28;20045;-59
2021/12/23 05:29:56;;;;;;;8.93;5.80;;;21.40;42.20;;;;;;5137506;28;20664;-59
2021/12/23 05:32:29;;;;;;;9.55;6.47;;;21.40;42.20;;;;;;5137124;28;20072;-59
2021/12/23 05:35:02;;;;;;;10.00;6.68;;;21.40;42.30;;;;;;5122673;28;20065;-59
2021/12/23 05:37:34;;;;;;;6.95;5.57;;;21.40;42.30;;;;;;5130420;28;20515;-59
2021/12/23 05:40:08;;;;;;;10.50;6.55;;;21.40;43.00;;;;;;5134194;28;20046;-60
2021/12/23 05:42:41;;;;;;;9.23;5.32;;;21.40;42.30;;;;;;5152026;28;20038;-57
2021/12/23 05:45:15;;;;;;;11.37;6.40;;;21.40;42.30;;;;;;5114936;28;20046;-58
2021/12/23 05:47:48;;;;;;;13.27;6.10;;;21.50;42.50;;;;;;5125706;28;20308;-58
2021/12/23 05:50:23;;;;;;;8.57;6.15;;;21.50;42.50;;;;;;5136429;28;20050;-59
2021/12/23 05:52:56;;;;;;;14.05;6.05;;;21.50;42.60;;;;;;5134170;28;20058;-58
2021/12/23 05:55:28;;;;;;;11.00;6.18;;;21.50;42.60;;;;;;5129323;28;20396;-59
2021/12/23 05:58:01;;;;;;;9.82;5.88;;;21.50;42.70;;;;;;5134269;28;20259;-59
2021/12/23 06:00:34;;;;;;;9.30;5.93;;;21.50;42.60;;;;;;5131856;28;20500;-57
2021/12/23 06:03:06;;;;;;;14.43;6.87;;;21.50;42.60;;;;;;5145109;28;20041;-59
2021/12/23 06:05:39;;;;;;;19.02;6.80;;;21.50;42.60;;;;;;5124447;28;20050;-59
2021/12/23 06:08:11;;;;;;;18.92;6.85;;;21.50;42.70;;;;;;5136637;28;20091;-60
2021/12/23 06:10:43;;;;;;;19.88;6.90;;;21.50;42.90;;;;;;5138014;28;21039;-56
2021/12/23 06:13:16;;;;;;;20.15;7.28;;;21.60;43.20;;;;;;5143987;28;20771;-59
2021/12/23 06:15:48;;;;;;;27.83;6.93;;;21.60;43.20;;;;;;5141974;28;20061;-58
2021/12/23 06:18:21;;;;;;;17.35;8.20;;;21.60;43.20;;;;;;5123362;28;20046;-59
2021/12/23 06:20:53;;;;;;;15.38;6.30;;;21.60;43.20;;;;;;5126866;28;20057;-58
2021/12/23 06:23:26;;;;;;;15.43;6.72;;;21.60;43.20;;;;;;5131213;28;20042;-56
2021/12/23 06:25:58;;;;;;;18.08;7.00;;;21.60;43.20;;;;;;5136964;28;20049;-58
2021/12/23 06:28:31;;;;;;;13.35;7.25;;;21.60;43.10;;;;;;5142872;28;20053;-58
2021/12/23 06:31:04;;;;;;;15.88;6.75;;;21.60;43.10;;;;;;5114682;28;20061;-59
2021/12/23 06:33:36;;;;;;;11.75;6.45;;;21.60;43.10;;;;;;5115300;28;20054;-59
2021/12/23 06:36:09;;;;;;;14.45;6.53;;;21.60;43.20;;;;;;5125543;28;20121;-58
2021/12/23 06:38:42;;;;;;;14.00;7.20;;;21.60;43.20;;;;;;5120426;28;20527;-57
2021/12/23 06:41:16;;;;;;;16.73;7.75;;;21.60;43.20;;;;;;5134158;28;20393;-57
2021/12/23 06:43:49;;;;;;;20.23;6.90;;;21.60;43.20;;;;;;5144628;28;20042;-59
2021/12/23 06:46:21;;;;;;;20.20;7.45;;;21.60;43.20;;;;;;5145766;28;20053;-59
2021/12/23 06:48:54;;;;;;;18.10;6.68;;;21.50;43.10;;;;;;5132954;28;20434;-57
2021/12/23 06:51:30;;;;;;;12.35;6.60;;;21.60;43.10;;;;;;5131670;28;20068;-57
2021/12/23 06:54:02;;;;;;;12.45;7.03;;;21.60;43.10;;;;;;5133347;28;20049;-58
2021/12/23 06:56:35;;;;;;;17.87;6.67;;;21.60;43.10;;;;;;5143011;28;20053;-58
2021/12/23 06:59:08;;;;;;;15.68;7.47;;;21.60;43.10;;;;;;5153351;28;20045;-58
2021/12/23 07:01:46;;;;;;;15.05;6.72;;;21.60;43.00;;;;;;5150522;28;20061;-57
2021/12/23 07:04:22;;;;;;;14.05;6.65;;;21.60;43.00;;;;;;5135698;28;20046;-59
2021/12/23 07:07:08;;;;;;;16.02;6.55;;;21.60;43.00;;;;;;5151895;28;20709;-58
2021/12/23 07:09:42;;;;;;;21.08;7.20;;;21.60;43.00;;;;;;5147823;28;20494;-58
2021/12/23 07:12:15;;;;;;;16.60;7.15;;;21.60;43.00;;;;;;5150886;28;20264;-58
2021/12/23 07:14:47;;;;;;;12.98;6.93;;;21.60;43.00;;;;;;5143801;28;20177;-58
2021/12/23 07:17:20;;;;;;;15.73;6.97;;;21.60;43.00;;;;;;5152585;28;20303;-58
2021/12/23 07:19:52;;;;;;;15.40;6.88;;;21.60;43.00;;;;;;5144502;28;20054;-59
2021/12/23 07:22:24;;;;;;;12.80;6.28;;;21.60;43.00;;;;;;5141697;28;21587;-59
2021/12/23 07:24:57;;;;;;;9.95;6.05;;;21.60;43.00;;;;;;5146365;28;20057;-59
2021/12/23 07:27:29;;;;;;;9.63;6.30;;;21.70;43.10;;;;;;5135067;28;20046;-60
2021/12/23 07:30:03;;;;;;;25.50;6.97;;;21.60;43.00;;;;;;5138868;28;20439;-57
2021/12/23 07:32:36;;;;;;;18.65;7.30;;;21.60;43.00;;;;;;5148721;28;20058;-56
2021/12/23 07:35:09;;;;;;;14.57;7.53;;;21.70;43.10;;;;;;5147591;28;20050;-57
2021/12/23 07:37:47;;;;;;;13.85;6.60;;;21.60;43.10;;;;;;5138553;28;20065;-57
2021/12/23 07:40:20;;;;;;;11.32;6.82;;;21.70;43.20;;;;;;5126852;28;20341;-57
2021/12/23 07:42:58;;;;;;;12.80;6.03;;;21.60;43.10;;;;;;5126718;28;20081;-59
2021/12/23 07:45:30;;;;;;;11.65;6.55;;;21.60;43.10;;;;;;5134219;28;20043;-57
2021/12/23 07:48:03;;;;;;;11.85;6.57;;;21.70;43.20;;;;;;5139451;28;20046;-58
2021/12/23 07:50:37;;;;;;;11.32;6.75;;;21.70;43.20;;;;;;5126697;28;20046;-56
2021/12/23 07:53:09;;;;;;;12.27;6.35;;;21.70;43.20;;;;;;5147143;28;20595;-56
2021/12/23 07:55:42;;;;;;;12.25;5.88;;;21.70;43.60;;;;;;5152974;28;20053;-58
2021/12/23 07:58:15;;;;;;;13.73;6.65;;;21.60;43.10;;;;;;5156836;28;20414;-59
2021/12/23 08:00:47;;;;;;;17.30;6.53;;;21.70;43.80;;;;;;5149795;28;20049;-59
2021/12/23 08:03:20;;;;;;;13.20;7.30;;;21.60;43.10;;;;;;5153828;28;20058;-60
2021/12/23 08:05:52;;;;;;;12.90;6.60;;;21.70;43.10;;;;;;5145070;28;20041;-57
2021/12/23 08:08:25;;;;;;;12.20;6.78;;;21.70;43.10;;;;;;5157128;28;20073;-59
2021/12/23 08:10:57;;;;;;;15.10;6.88;;;21.70;43.10;;;;;;5146298;28;20041;-59
2021/12/23 08:13:30;;;;;;;10.17;6.30;;;21.70;43.10;;;;;;5153434;28;20050;-57
2021/12/23 08:16:03;;;;;;;13.93;6.18;;;21.70;43.10;;;;;;5153281;28;20039;-59
2021/12/23 08:18:36;;;;;;;;;;;21.70;43.10;;;;;;5150919;28;20057;-58
2021/12/23 08:21:08;;;;;;;12.43;6.18;;;21.60;43.10;;;;;;5152399;28;19929;-59
2021/12/23 08:23:40;;;;;;;11.13;6.30;;;21.70;43.10;;;;;;5151882;28;20053;-59
2021/12/23 08:26:16;;;;;;;14.45;6.28;;;21.70;43.10;;;;;;5156375;28;20046;-59
2021/12/23 08:28:48;;;;;;;10.65;6.18;;;21.70;43.10;;;;;;5153143;28;20055;-57
2021/12/23 08:31:21;;;;;;;8.88;6.15;;;21.70;43.10;;;;;;5151329;28;20042;-59
2021/12/23 08:33:53;;;;;;;13.70;6.10;;;21.70;43.10;;;;;;5154194;28;20050;-58
2021/12/23 08:36:26;;;;;;;12.57;6.05;;;21.70;43.10;;;;;;5153310;28;20046;-59
2021/12/23 08:38:58;;;;;;;17.20;7.10;;;21.70;43.10;;;;;;5145403;28;20070;-57
2021/12/23 08:41:31;;;;;;;13.38;6.95;;;21.70;43.10;;;;;;5153639;28;20049;-59
2021/12/23 08:44:04;;;;;;;12.38;6.10;;;21.70;43.10;;;;;;5166845;28;20050;-58
2021/12/23 08:46:37;;;;;;;12.88;5.85;;;21.70;43.10;;;;;;5164105;28;20509;-58
2021/12/23 08:49:09;;;;;;;11.40;5.97;;;21.70;43.10;;;;;;5152474;28;20058;-59
2021/12/23 08:51:43;;;;;;;9.00;5.83;;;21.70;43.10;;;;;;5150640;28;20502;-59
2021/12/23 08:54:16;;;;;;;10.30;6.55;;;21.70;43.10;;;;;;5153449;28;20053;-59
2021/12/23 08:56:49;;;;;;;10.32;6.47;;;21.80;43.20;;;;;;5154563;28;20504;-59
2021/12/23 08:59:21;;;;;;;13.10;5.93;;;21.80;43.20;;;;;;5154972;28;20054;-57
2021/12/23 09:01:54;;;;;;;12.55;6.45;;;21.70;43.20;;;;;;5155807;28;20042;-59
2021/12/23 09:04:27;;;;;;;13.98;6.53;;;21.80;43.30;;;;;;5162276;28;20049;-58
2021/12/23 09:06:59;;;;;;;10.95;6.50;;;21.70;43.20;;;;;;5157046;28;20129;-58
2021/12/23 09:09:33;;;;;;;10.73;5.70;;;21.80;43.20;;;;;;5151888;28;20046;-58
2021/12/23 09:12:07;;;;;;;11.05;6.50;;;21.80;43.30;;;;;;5147181;28;20060;-57
2021/12/23 09:14:39;;;;;;;10.68;5.75;;;21.80;43.30;;;;;;5164188;28;20076;-59
2021/12/23 09:17:18;;;;;;;10.52;6.05;;;21.80;43.30;;;;;;5165878;28;20054;-58
2021/12/23 09:19:50;;;;;;;10.00;6.13;;;21.80;43.30;;;;;;5155033;28;20137;-59
2021/12/23 09:22:23;;;;;;;9.82;5.47;;;21.80;43.30;;;;;;5144271;28;20057;-59
2021/12/23 09:24:58;;;;;;;11.20;6.78;;;21.80;43.30;;;;;;5147526;28;20047;-58
2021/12/23 09:27:37;;;;;;;9.77;6.05;;;21.80;43.40;;;;;;5138943;28;20042;-57
2021/12/23 09:33:02;;;;;;;12.88;5.20;;;21.80;43.40;;;;;;5157770;28;20576;-58
2021/12/23 09:35:55;;;;;;;10.65;5.50;;;21.80;43.40;;;;;;5164882;28;20050;-58
2021/12/23 09:38:28;;;;;;;11.20;5.53;;;21.80;43.40;;;;;;5157246;28;20052;-57
2021/12/23 09:41:07;;;;;;;11.15;5.85;;;21.80;43.40;;;;;;5155001;28;20061;-58
2021/12/23 09:43:41;;;;;;;7.78;5.40;;;21.80;43.40;;;;;;5152992;28;20069;-59
2021/12/23 09:46:16;;;;;;;8.82;5.22;;;21.80;43.40;;;;;;5150588;28;20038;-56
2021/12/23 09:48:49;;;;;;;9.35;5.18;;;21.80;43.40;;;;;;5158112;28;20078;-58
2021/12/23 09:51:24;;;;;;;8.50;5.40;;;21.80;43.40;;;;;;5149690;28;20046;-59
2021/12/23 09:54:03;;;;;;;10.10;5.53;;;21.80;43.40;;;;;;5135511;28;20065;-58
2021/12/23 09:56:36;;;;;;;9.65;5.88;;;21.80;43.40;;;;;;5161314;28;20724;-58
2021/12/23 09:59:09;;;;;;;12.65;6.32;;;21.80;43.50;;;;;;5098875;28;20050;-51
2021/12/23 10:01:43;;;;;;;8.68;5.43;;;21.80;43.40;;;;;;5122034;28;20383;-56
2021/12/23 10:04:15;;;;;;;6.72;4.82;;;21.80;43.50;;;;;;5140539;28;20351;-58
2021/12/23 10:06:50;;;;;;;10.98;5.68;;;21.80;43.30;;;;;;5127099;28;20049;-48
2021/12/23 10:09:41;;;;;;;10.43;5.63;;;21.80;43.30;;;;;;5102138;28;20054;-54
2021/12/23 10:32:49;;;;;;;10.80;5.10;;;21.80;43.40;;;;;;5100623;28;20050;-57
2021/12/23 10:37:21;;;;;;;15.77;6.13;;;21.80;43.80;;;;;;5144139;28;20046;-58
2021/12/23 10:40:14;;;;;;;13.65;5.40;;;21.90;44.00;;;;;;5113242;28;20050;-56
2021/12/23 10:42:50;;;;;;;17.38;5.63;;;21.80;43.80;;;;;;5116943;28;20046;-57
2021/12/23 10:45:23;;;;;;;15.80;4.75;;;21.90;43.30;;;;;;5125817;28;20583;-59
2021/12/23 10:48:01;;;;;;;11.35;5.35;;;21.90;43.80;;;;;;5132161;28;20506;-57
2021/12/23 10:50:43;;;;;;;19.10;5.50;;;21.90;43.80;;;;;;5134407;28;20529;-57
2021/12/23 10:53:41;;;;;;;11.80;4.82;;;22.00;43.80;;;;;;5112212;28;21366;-57
2021/12/23 10:59:17;;;;;;;12.65;4.90;;;22.00;43.80;;;;;;5127272;28;20510;-56
2021/12/23 11:02:10;;;;;;;14.50;5.35;;;22.00;43.80;;;;;;5099441;28;20046;-55
2021/12/23 11:05:22;;;;;;;8.25;4.93;;;22.00;43.70;;;;;;4435297;28;10000187;-54
2021/12/23 11:10:56;;;;;;;9.85;4.55;;;22.00;43.70;;;;;;5126437;28;20548;-56
2021/12/23 11:40:25;;;;;;;11.02;4.63;;;22.20;43.90;;;;;;5100243;28;20062;-56
2021/12/23 11:43:25;;;;;;;8.10;4.35;;;22.30;44.10;;;;;;5117888;28;21171;-56
2021/12/23 11:45:54;;;;;;;12.73;4.53;;;22.20;43.90;;;;;;5128316;28;21505;-57
2021/12/23 11:48:26;;;;;;;7.20;4.13;;;22.20;44.00;;;;;;5139211;28;20366;-57
2021/12/23 11:51:07;;;;;;;15.23;4.25;;;22.20;44.00;;;;;;5110848;28;20046;-57
2021/12/23 11:53:40;;;;;;;9.05;4.40;;;22.20;44.30;;;;;;5121685;28;20426;-56
2021/12/23 11:56:14;;;;;;;13.43;4.53;;;22.20;44.10;;;;;;5127559;28;20054;-55
2021/12/23 11:58:48;;;;;;;6.35;4.18;;;22.20;44.20;;;;;;5128551;28;21256;-56
2021/12/23 12:01:24;;;;;;;7.87;4.37;;;22.20;44.20;;;;;;4789612;28;10000517;-56
2021/12/23 12:04:04;;;;;;;12.95;4.57;;;22.20;44.20;;;;;;5129647;28;20045;-56
2021/12/23 12:06:43;;;;;;;10.63;4.38;;;22.10;44.20;;;;;;5108156;28;20423;-56
2021/12/23 12:09:26;;;;;;;9.02;4.03;;;22.10;44.20;;;;;;5122459;28;20525;-56
2021/12/23 12:11:58;;;;;;;8.43;4.03;;;22.10;44.30;;;;;;5137879;28;20050;-55
2021/12/23 12:14:40;;;;;;;9.45;3.90;;;22.10;44.30;;;;;;5122965;28;20053;-57
2021/12/23 12:17:25;;;;;;;6.20;4.13;;;22.10;44.40;;;;;;4790996;28;10000137;-57
2021/12/23 12:20:07;;;;;;;5.78;4.00;;;22.10;44.40;;;;;;5124423;28;22542;-56
2021/12/23 12:22:53;;;;;;;10.57;4.13;;;22.10;44.40;;;;;;5103858;28;20314;-56
2021/12/23 12:25:25;;;;;;;5.85;3.55;;;22.10;44.40;;;;;;5133370;28;20308;-53
2021/12/23 12:27:58;;;;;;;8.20;4.00;;;22.10;44.50;;;;;;5120481;28;20042;-56
2021/12/23 12:30:40;;;;;;;13.25;3.75;;;22.10;45.40;;;;;;5120377;28;20675;-57
2021/12/23 12:33:33;;;;;;;12.38;4.15;;;22.10;44.60;;;;;;5129331;28;20049;-57
2021/12/23 12:36:13;;;;;;;12.80;4.03;;;22.10;44.60;;;;;;5098770;28;20058;-55
2021/12/23 12:38:51;;;;;;;7.47;4.13;;;22.10;44.70;;;;;;5103534;28;20249;-57
2021/12/23 12:41:23;;;;;;;7.57;3.92;;;22.10;44.80;;;;;;5090502;28;20465;-56
2021/12/23 12:44:11;;;;;;;8.93;4.05;;;22.10;44.80;;;;;;5116315;28;20305;-55
2021/12/23 12:46:55;;;;;;;13.85;4.25;;;22.10;44.90;;;;;;5109418;28;20050;-56
2021/12/23 12:49:38;;;;;;;23.52;4.72;;;22.00;44.90;;;;;;5104624;28;20057;-55
2021/12/23 12:52:21;;;;;;;17.67;4.78;;;22.00;45.10;;;;;;5113533;28;20060;-56
2021/12/23 12:55:00;;;;;;;16.48;4.18;;;22.00;45.40;;;;;;5131106;28;20542;-57
2021/12/23 12:57:39;;;;;;;14.20;3.97;;;22.10;45.20;;;;;;5103027;28;20065;-56
2021/12/23 13:00:27;;;;;;;17.35;3.95;;;22.10;45.90;;;;;;5108305;28;20053;-54
2021/12/23 13:03:07;;;;;;;13.52;3.53;;;22.20;45.20;;;;;;5119517;28;20053;-55
2021/12/23 13:05:42;;;;;;;12.13;4.00;;;22.20;45.70;;;;;;5116614;28;20517;-57
2021/12/23 13:08:15;;;;;;;13.77;3.70;;;22.10;45.50;;;;;;5115509;28;20048;-58
2021/12/23 13:11:16;;;;;;;15.23;4.15;;;22.20;45.40;;;;;;5107867;28;20043;-58
2021/12/23 13:14:14;;;;;;;13.25;4.03;;;22.20;45.40;;;;;;5120504;28;20058;-58
2021/12/23 13:18:02;;;;;;;14.60;3.97;;;22.20;45.50;;;;;;5122699;28;20045;-57
2021/12/23 13:20:40;;;;;;;12.88;3.75;;;22.20;45.70;;;;;;5117456;28;20050;-58
2021/12/23 13:23:13;;;;;;;13.88;4.40;;;22.20;45.60;;;;;;5109178;28;20054;-57
2021/12/23 13:25:53;;;;;;;24.75;9.35;;;22.20;45.60;;;;;;5144307;28;20532;-57
2021/12/23 13:28:35;;;;;;;32.33;9.30;;;22.20;45.60;;;;;;5103326;28;20046;-59
2021/12/23 13:31:19;;;;;;;24.85;10.30;;;22.20;45.60;;;;;;5138248;28;20743;-57
2021/12/23 13:33:55;;;;;;;49.35;17.95;;;22.20;45.50;;;;;;5142532;28;20058;-57
2021/12/23 13:36:39;;;;;;;41.40;16.60;;;22.20;45.50;;;;;;5135310;28;20046;-59
2021/12/23 13:39:18;;;;;;;43.45;16.80;;;22.20;45.60;;;;;;5132005;28;21106;-56
2021/12/23 13:41:54;;;;;;;43.45;17.25;;;22.30;45.70;;;;;;5137681;28;20046;-57
2021/12/23 13:44:40;;;;;;;51.22;16.50;;;22.30;45.60;;;;;;5131207;28;20046;-55
2021/12/23 13:47:21;;;;;;;48.58;16.02;;;22.30;45.80;;;;;;5112775;28;20038;-57
2021/12/23 13:49:56;;;;;;;50.00;17.30;;;22.30;45.80;;;;;;5119634;28;20046;-57
2021/12/23 13:52:35;;;;;;;54.40;16.58;;;22.30;46.00;;;;;;5109297;28;20050;-58
2021/12/23 13:55:11;;;;;;;47.47;14.93;;;22.30;46.20;;;;;;5116721;28;22738;-57
2021/12/23 13:57:48;;;;;;;46.63;14.90;;;22.30;46.30;;;;;;5117710;28;20050;-57
2021/12/23 14:00:28;;;;;;;49.78;14.38;;;22.30;46.10;;;;;;5109339;28;20053;-59
2021/12/23 14:03:12;;;;;;;40.90;13.55;;;22.30;46.00;;;;;;5112686;28;20624;-58
2021/12/23 14:05:49;;;;;;;46.15;14.38;;;22.40;46.00;;;;;;5118483;28;20454;-59
2021/12/23 14:08:23;;;;;;;45.55;12.95;;;22.40;46.00;;;;;;5111439;28;20042;-58
2021/12/23 14:10:56;;;;;;;;;;;22.40;46.00;;;;;;5113295;28;20461;-55
2021/12/23 14:13:29;;;;;;;43.33;11.95;;;22.40;46.00;;;;;;5117315;28;20459;-56
2021/12/23 14:16:16;;;;;;;39.80;12.65;;;22.40;46.10;;;;;;5133374;28;20130;-55
2021/12/23 14:19:20;;;;;;;36.97;11.63;;;22.40;46.10;;;;;;5102751;28;20038;-56
2021/12/23 14:24:44;;;;;;;40.40;12.20;;;22.40;46.20;;;;;;5127409;28;20897;-57
2021/12/23 14:27:17;;;;;;;39.85;10.57;;;22.40;46.30;;;;;;5124544;28;20308;-56
2021/12/23 14:30:00;;;;;;;32.88;11.32;;;22.40;46.40;;;;;;5104376;28;20069;-57
2021/12/23 14:32:33;;;;;;;31.52;11.02;;;22.40;46.40;;;;;;5144876;28;20057;-56